Hutchins, Vermont
Current Conditions -  °F | °C
As of 5:15 PM on Saturday 25 Oct 2014 (Local Time) from KEFK Reporting Station
Broken Clouds Broken Clouds  
Wind Chill: 54°   Ceiling: 5000
Heat Index: 54°   Visibility: 10mi
Dew Point: 42°   Wind: 6mph
Humidity: 65%   Direction: 230°SW
Pressure: 29.54"   Gusts: NA
Location:  44.8557°N, 72.6016°W
Report Text: KEFK 252115Z AUTO 23005KT 10SM SCT046 BKN050 12/06 A2954 RMK AO2 T01200055
Loading
Personal Weather Stations






























Interactive Weather Map
Tropical Storm Tracking
New forecast layout! Learn more

10-Day Weather Forecast

Advertisements
Track Severe Weather on mobile